Terminal Aerodrome Forecast
Issued by NWS St Louis, MO

Home | Current Version | Previous Version | Text Only | Print | Product List | Glossary On
Versions: 1 2 3 4 5 6 7 8 9 10 11 12 13 14 15 16 17 18 19 20 21 22 23 24 25 26 27 28 29 30 31 32 33 34 35
429
FTUS43 KLSX 200543
TAFSTL
TAF
KSTL 200543Z 2006/2112 14008KT P6SM BKN250
     FM200900 13006KT 3SM BR SCT010 BKN250
     FM201500 14012KT P6SM BKN120
     FM201800 15014G23KT P6SM BKN120
     FM210000 17011KT 6SM -SHRA BKN050
     FM210600 21006KT 6SM -SHRA BR BKN035=

USA.gov is the U.S. government's official web portal to all federal, state and local government web resources and services.